This is the latest recevied weather packets stored in our database for station/object KB3AWQ. If no packets are shown the sender has not sent any weather packets the latest 10 day(s).
| Time | Temp. | Humidity | Pressure | Rain* | Wind** | Luminosity | Snow |
|---|---|---|---|---|---|---|---|
| 1777561166 | 15° C | 65% | 1009.8 hPa | 0 mm | - | 326 W/m² | - |
| 1777560567 | 13.89° C | 73% | 1009.7 hPa | 0 mm | - | 944 W/m² | - |
| 1777560266 | 13.89° C | 71% | 1009.7 hPa | 0 mm | - | 280 W/m² | - |
| 1777559967 | 14.44° C | 70% | 1009.7 hPa | 0 mm | - | 277 W/m² | - |
| 1777559667 | 13.89° C | 71% | 1009.7 hPa | 0 mm | - | 863 W/m² | - |
| 1777559367 | 13.33° C | 71% | 1009.6 hPa | 0 mm | - | 849 W/m² | - |
| 1777559068 | 13.33° C | 73% | 1009.6 hPa | 0 mm | - | 783 W/m² | - |
| 1777558767 | 12.78° C | 73% | 1009.6 hPa | 0 mm | - | 766 W/m² | - |
| 1777558467 | 12.22° C | 76% | 1009.6 hPa | 0 mm | - | 771 W/m² | - |
| 1777558168 | 11.67° C | 81% | 1009.5 hPa | 0 mm | - | 717 W/m² | - |
| 1777557867 | 11.67° C | 81% | 1009.5 hPa | 0 mm | - | 636 W/m² | - |
| 1777557568 | 11.67° C | 79% | 1009.6 hPa | 0 mm | - | 269 W/m² | - |
| 1777557267 | 11.11° C | 77% | 1009.6 hPa | 0 mm | - | 280 W/m² | - |
| 1777556967 | 11.11° C | 81% | 1009.6 hPa | 0 mm | - | 315 W/m² | - |
| 1777556666 | 11.11° C | 81% | 1009.7 hPa | 0 mm | - | 238 W/m² | - |
| 1777556369 | 11.11° C | 81% | 1009.6 hPa | 0 mm | - | 231 W/m² | - |
| 1777556067 | 11.11° C | 84% | 1009.6 hPa | 0 mm | - | 252 W/m² | - |
| 1777555772 | 11.11° C | 84% | 1009.5 hPa | 0 mm | - | 228 W/m² | - |
| 1777555468 | 11.11° C | 84% | 1009.5 hPa | 0 mm | - | 263 W/m² | - |
| 1777555166 | 11.11° C | 85% | 1009.5 hPa | 0 mm | - | 238 W/m² | - |
| 1777554866 | 10.56° C | 86% | 1009.5 hPa | 0 mm | - | 221 W/m² | - |
| 1777554567 | 10.56° C | 85% | 1009.6 hPa | 0 mm | - | 175 W/m² | - |
| 1777554266 | 10.56° C | 85% | 1009.6 hPa | 0 mm | - | 170 W/m² | - |
| 1777553967 | 11.11° C | 85% | 1009.6 hPa | 0 mm | - | 203 W/m² | - |
| 1777553667 | 10.56° C | 87% | 1009.6 hPa | 0 mm | - | 225 W/m² | - |
* Rain latest hour (hover to see other rain measurements)
** Current wind speed in m/s (hover to see current wind gust speed)